Time;durP1;ratioP1;P1;durP2;ratioP2;P2;SDS_P1;SDS_P2;PMS_P1;PMS_P2;Temp;Humidity;BMP_temperature;BMP_pressure;BME280_temperature;BME280_humidity;BME280_pressure;Samples;Min_cycle;Max_cycle;Signal;HPM_P1;HPM_P2
2023/03/07 00:00:12;;;;;;;121.78;37.97;;;;;;;;;;4950091;28;20039;-54
2023/03/07 00:02:39;;;;;;;110.05;36.25;;;;;;;;;;4949745;28;20046;-53
2023/03/07 00:05:06;;;;;;;110.97;35.10;;;;;;;;;;4950026;28;20058;-53
2023/03/07 00:07:33;;;;;;;92.43;35.83;;;;;;;;;;4950433;28;20423;-53
2023/03/07 00:09:59;;;;;;;153.00;41.40;;;;;;;;;;4950590;28;20471;-54
2023/03/07 00:12:26;;;;;;;111.38;38.30;;;;;;;;;;4948438;28;20039;-52
2023/03/07 00:14:54;;;;;;;106.97;36.65;;;;;;;;;;4950042;28;20047;-53
2023/03/07 00:17:20;;;;;;;123.45;37.15;;;;;;;;;;4949886;28;20039;-53
2023/03/07 00:19:46;;;;;;;104.80;34.95;;;;;;;;;;4950035;28;20057;-51
2023/03/07 00:22:13;;;;;;;125.28;35.58;;;;;;;;;;4950261;28;20050;-53
2023/03/07 00:24:40;;;;;;;109.00;35.75;;;;;;;;;;4950822;28;20051;-54
2023/03/07 00:27:07;;;;;;;110.88;36.63;;;;;;;;;;4950097;28;20511;-53
2023/03/07 00:29:34;;;;;;;97.15;35.47;;;;;;;;;;4949971;28;20130;-54
2023/03/07 00:32:00;;;;;;;115.70;35.22;;;;;;;;;;4948239;28;20452;-49
2023/03/07 00:34:27;;;;;;;248.13;44.13;;;;;;;;;;4946968;28;20126;-59
2023/03/07 00:36:53;;;;;;;120.00;34.13;;;;;;;;;;4950333;28;20135;-57
2023/03/07 00:39:20;;;;;;;121.10;35.60;;;;;;;;;;4949535;28;20150;-60
2023/03/07 00:41:46;;;;;;;138.05;37.30;;;;;;;;;;4950377;28;20405;-60
2023/03/07 00:44:13;;;;;;;108.35;35.28;;;;;;;;;;4950141;28;20572;-60
2023/03/07 00:46:39;;;;;;;113.43;34.22;;;;;;;;;;4949431;28;20055;-58
2023/03/07 00:49:07;;;;;;;131.07;34.58;;;;;;;;;;4948688;28;20693;-58
2023/03/07 00:51:33;;;;;;;120.60;38.35;;;;;;;;;;4944947;28;20066;-57
2023/03/07 00:54:00;;;;;;;129.43;37.03;;;;;;;;;;4953031;28;20039;-59
2023/03/07 00:56:27;;;;;;;134.35;38.63;;;;;;;;;;4951718;29;20110;-58
2023/03/07 00:58:53;;;;;;;132.18;37.45;;;;;;;;;;4952102;29;20079;-59
2023/03/07 01:01:22;;;;;;;140.13;38.40;;;;;;;;;;4951757;29;20079;-59
2023/03/07 01:03:48;;;;;;;122.72;35.92;;;;;;;;;;4954389;28;20058;-58
2023/03/07 01:06:16;;;;;;;118.43;36.80;;;;;;;;;;4951669;29;20096;-59
2023/03/07 01:08:43;;;;;;;111.32;37.40;;;;;;;;;;4952237;29;20511;-58
2023/03/07 01:11:11;;;;;;;132.02;35.35;;;;;;;;;;4953406;28;20118;-58
2023/03/07 01:13:38;;;;;;;117.82;36.28;;;;;;;;;;4952120;28;20377;-59
2023/03/07 01:16:18;;;;;;;100.65;35.17;;;;;;;;;;4950075;29;20057;-59
2023/03/07 01:18:50;;;;;;;122.10;36.95;;;;;;;;;;4952817;29;20082;-60
2023/03/07 01:21:18;;;;;;;117.78;35.97;;;;;;;;;;4952583;28;20043;-59
2023/03/07 01:23:45;;;;;;;139.30;36.83;;;;;;;;;;4950925;29;20049;-58
2023/03/07 01:26:15;;;;;;;115.28;35.35;;;;;;;;;;4952622;28;20121;-57
2023/03/07 01:28:42;;;;;;;126.43;36.72;;;;;;;;;;4952242;28;20039;-59
2023/03/07 01:31:09;;;;;;;141.23;34.45;;;;;;;;;;4952567;28;20039;-60
2023/03/07 01:33:37;;;;;;;108.47;33.60;;;;;;;;;;4949133;29;20044;-59
2023/03/07 01:36:04;;;;;;;158.40;35.72;;;;;;;;;;4951708;29;20039;-51
2023/03/07 01:38:32;;;;;;;132.15;37.40;;;;;;;;;;4947559;28;20077;-52
2023/03/07 01:41:02;;;;;;;130.18;35.35;;;;;;;;;;4953102;28;20526;-53
2023/03/07 01:43:32;;;;;;;134.43;36.45;;;;;;;;;;4959242;28;20150;-54
2023/03/07 01:46:18;;;;;;;147.80;37.33;;;;;;;;;;4951740;28;20051;-53
2023/03/07 01:48:48;;;;;;;135.27;37.35;;;;;;;;;;4963199;28;20044;-53
2023/03/07 01:51:15;;;;;;;128.68;35.47;;;;;;;;;;4964710;28;20047;-50
2023/03/07 01:53:42;;;;;;;104.80;32.95;;;;;;;;;;4963096;28;20138;-52
2023/03/07 01:56:09;;;;;;;129.60;34.95;;;;;;;;;;4962396;28;20043;-53
2023/03/07 01:58:37;;;;;;;110.13;31.45;;;;;;;;;;4950982;28;20054;-53
2023/03/07 02:01:06;;;;;;;118.60;33.60;;;;;;;;;;4946687;28;20070;-54
2023/03/07 02:03:51;;;;;;;109.47;33.05;;;;;;;;;;4951425;29;20051;-52
2023/03/07 02:06:18;;;;;;;96.50;29.38;;;;;;;;;;4950497;29;20075;-54
2023/03/07 02:08:47;;;;;;;92.88;28.30;;;;;;;;;;4950090;28;20047;-55
2023/03/07 02:11:14;;;;;;;99.05;28.88;;;;;;;;;;4959506;28;20452;-53
2023/03/07 02:13:41;;;;;;;106.45;28.85;;;;;;;;;;4950017;29;20044;-50
2023/03/07 02:16:07;;;;;;;95.72;27.90;;;;;;;;;;4950677;28;20367;-49
2023/03/07 02:18:37;;;;;;;95.47;27.95;;;;;;;;;;4952193;28;20138;-53
2023/03/07 02:21:22;;;;;;;81.60;25.88;;;;;;;;;;4943450;28;20055;-50
2023/03/07 02:23:55;;;;;;;88.00;28.02;;;;;;;;;;4948705;28;20057;-51
2023/03/07 02:26:29;;;;;;;76.82;23.38;;;;;;;;;;4950505;28;20055;-49
2023/03/07 02:28:56;;;;;;;;;;;;;;;;;;4957305;28;20067;-51
2023/03/07 02:31:23;;;;;;;115.65;26.65;;;;;;;;;;4966286;28;19922;-51
2023/03/07 02:33:50;;;;;;;62.28;22.70;;;;;;;;;;4951360;29;20051;-52
2023/03/07 02:36:25;;;;;;;111.72;25.55;;;;;;;;;;4949502;29;20051;-51
2023/03/07 02:39:05;;;;;;;78.22;24.63;;;;;;;;;;4950235;28;20039;-52
2023/03/07 02:41:33;;;;;;;133.05;27.38;;;;;;;;;;4956662;28;20114;-54
2023/03/07 02:44:05;;;;;;;136.80;27.00;;;;;;;;;;4949565;28;20059;-52
2023/03/07 02:46:31;;;;;;;91.78;25.70;;;;;;;;;;4957667;28;20512;-53
2023/03/07 02:48:58;;;;;;;104.20;26.83;;;;;;;;;;4959890;28;20039;-51
2023/03/07 02:51:24;;;;;;;91.68;26.85;;;;;;;;;;4947559;28;20051;-58
2023/03/07 02:53:51;;;;;;;116.85;27.75;;;;;;;;;;4950325;29;20456;-61
2023/03/07 02:56:17;;;;;;;99.85;26.85;;;;;;;;;;4951214;28;20049;-57
2023/03/07 02:58:44;;;;;;;100.35;26.00;;;;;;;;;;4949490;28;20516;-59
2023/03/07 03:01:11;;;;;;;93.10;25.95;;;;;;;;;;4950442;29;20110;-59
2023/03/07 03:03:38;;;;;;;104.53;24.92;;;;;;;;;;4952056;28;20408;-57
2023/03/07 03:06:04;;;;;;;86.47;24.63;;;;;;;;;;4950903;28;20050;-59
2023/03/07 03:08:31;;;;;;;75.63;24.33;;;;;;;;;;4951255;28;20069;-58
2023/03/07 03:10:57;;;;;;;104.70;27.00;;;;;;;;;;4950381;28;20065;-58
2023/03/07 03:13:25;;;;;;;119.30;26.77;;;;;;;;;;4949323;28;20047;-57
2023/03/07 03:15:55;;;;;;;87.95;24.88;;;;;;;;;;4950334;29;20050;-59
2023/03/07 03:18:23;;;;;;;88.50;25.70;;;;;;;;;;4949727;28;20058;-60
2023/03/07 03:20:50;;;;;;;95.00;24.60;;;;;;;;;;4957561;28;20055;-59
2023/03/07 03:23:16;;;;;;;83.78;22.90;;;;;;;;;;4949713;28;20035;-58
2023/03/07 03:25:43;;;;;;;111.97;25.45;;;;;;;;;;4949029;28;20039;-59
2023/03/07 03:28:12;;;;;;;77.35;23.08;;;;;;;;;;4947925;28;20497;-58
2023/03/07 03:30:39;;;;;;;88.90;23.73;;;;;;;;;;4934344;29;20195;-57
2023/03/07 03:33:06;;;;;;;96.10;25.67;;;;;;;;;;4948884;29;20539;-59
2023/03/07 03:35:33;;;;;;;124.20;27.50;;;;;;;;;;4949456;29;20073;-57
2023/03/07 03:38:00;;;;;;;91.90;24.42;;;;;;;;;;4964129;28;20043;-60
2023/03/07 03:40:27;;;;;;;124.47;27.70;;;;;;;;;;4954679;28;20408;-56
2023/03/07 03:42:53;;;;;;;86.40;24.98;;;;;;;;;;4950400;29;20413;-60
2023/03/07 03:45:23;;;;;;;94.22;26.88;;;;;;;;;;4960115;28;20043;-57
2023/03/07 03:47:49;;;;;;;127.72;28.63;;;;;;;;;;4958801;28;20040;-57
2023/03/07 03:50:16;;;;;;;82.18;24.50;;;;;;;;;;4932871;29;20040;-58
2023/03/07 03:52:44;;;;;;;97.65;26.67;;;;;;;;;;4948900;28;20044;-54
2023/03/07 03:55:11;;;;;;;129.13;30.15;;;;;;;;;;4945580;28;20501;-51
2023/03/07 03:57:37;;;;;;;119.55;34.38;;;;;;;;;;4949610;29;20051;-50
2023/03/07 04:00:07;;;;;;;137.05;36.92;;;;;;;;;;4954132;28;20047;-52
2023/03/07 04:02:37;;;;;;;135.75;39.88;;;;;;;;;;4950243;28;20043;-54
2023/03/07 04:05:06;;;;;;;134.23;42.58;;;;;;;;;;4945414;29;20098;-52
2023/03/07 04:07:32;;;;;;;141.15;43.15;;;;;;;;;;4950590;28;20050;-56
2023/03/07 04:09:59;;;;;;;148.07;39.20;;;;;;;;;;4949633;29;20066;-54
2023/03/07 04:12:26;;;;;;;107.22;36.45;;;;;;;;;;4949104;28;20090;-51
2023/03/07 04:14:52;;;;;;;124.28;36.00;;;;;;;;;;4950048;28;20031;-53
2023/03/07 04:17:19;;;;;;;170.70;41.15;;;;;;;;;;4950530;28;20533;-55
2023/03/07 04:19:45;;;;;;;134.50;38.20;;;;;;;;;;4948903;28;20575;-52
2023/03/07 04:22:11;;;;;;;131.02;37.95;;;;;;;;;;4960677;28;20114;-53
2023/03/07 04:24:38;;;;;;;189.02;42.03;;;;;;;;;;4951494;28;20054;-54
2023/03/07 04:27:06;;;;;;;136.98;40.05;;;;;;;;;;4966757;28;20571;-53
2023/03/07 04:29:34;;;;;;;123.07;37.38;;;;;;;;;;4952320;28;20098;-52
2023/03/07 04:32:09;;;;;;;137.65;39.65;;;;;;;;;;4961460;28;20139;-53
2023/03/07 04:34:36;;;;;;;125.65;36.05;;;;;;;;;;4952780;29;20047;-53
2023/03/07 04:37:02;;;;;;;130.10;38.72;;;;;;;;;;4963063;28;20051;-54
2023/03/07 04:39:29;;;;;;;170.82;39.10;;;;;;;;;;4953350;28;20077;-53
2023/03/07 04:41:56;;;;;;;134.18;36.97;;;;;;;;;;4952580;28;20166;-52
2023/03/07 04:44:23;;;;;;;127.55;36.20;;;;;;;;;;4952959;28;20047;-55
2023/03/07 04:46:50;;;;;;;115.68;33.15;;;;;;;;;;4954126;28;20384;-51
2023/03/07 04:49:16;;;;;;;154.27;36.53;;;;;;;;;;4950792;29;20132;-52
2023/03/07 04:51:42;;;;;;;114.07;36.25;;;;;;;;;;4953125;29;20067;-55
2023/03/07 04:54:11;;;;;;;138.35;38.20;;;;;;;;;;4949987;29;20347;-53
2023/03/07 04:56:39;;;;;;;156.15;39.33;;;;;;;;;;4952540;29;20043;-59
2023/03/07 04:59:08;;;;;;;144.35;37.15;;;;;;;;;;4956874;28;20028;-58
2023/03/07 05:01:34;;;;;;;157.00;36.70;;;;;;;;;;4952195;29;20102;-58
2023/03/07 05:04:01;;;;;;;130.32;36.80;;;;;;;;;;4952530;29;20035;-59
2023/03/07 05:06:28;;;;;;;137.63;33.78;;;;;;;;;;4951167;28;20054;-58
2023/03/07 05:08:55;;;;;;;116.63;33.33;;;;;;;;;;4951995;29;20468;-59
2023/03/07 05:11:22;;;;;;;139.65;35.83;;;;;;;;;;4953275;28;20103;-57
2023/03/07 05:13:49;;;;;;;135.40;34.45;;;;;;;;;;4952520;28;20065;-58
2023/03/07 05:16:19;;;;;;;139.13;34.10;;;;;;;;;;4951961;29;20134;-56
2023/03/07 05:18:46;;;;;;;98.53;29.63;;;;;;;;;;4952986;29;20134;-57
2023/03/07 05:21:13;;;;;;;124.18;30.38;;;;;;;;;;4951158;28;20126;-60
2023/03/07 05:23:40;;;;;;;113.50;30.55;;;;;;;;;;4951312;29;20039;-59
2023/03/07 05:26:08;;;;;;;96.65;29.98;;;;;;;;;;4959441;28;20102;-58
2023/03/07 05:28:35;;;;;;;111.60;28.95;;;;;;;;;;4951442;29;20044;-58
2023/03/07 05:31:02;;;;;;;105.18;29.88;;;;;;;;;;4959525;28;20055;-61
2023/03/07 05:33:30;;;;;;;93.68;28.45;;;;;;;;;;4953085;28;20114;-59
2023/03/07 05:36:00;;;;;;;99.15;29.38;;;;;;;;;;4945481;28;20043;-58
2023/03/07 05:38:28;;;;;;;86.10;26.45;;;;;;;;;;4952273;28;20043;-55
2023/03/07 05:40:54;;;;;;;92.22;28.15;;;;;;;;;;4951918;28;20139;-58
2023/03/07 05:43:21;;;;;;;152.32;34.65;;;;;;;;;;4951747;28;20063;-57
2023/03/07 05:45:49;;;;;;;112.45;34.25;;;;;;;;;;4951377;29;20075;-58
2023/03/07 05:48:15;;;;;;;105.70;32.42;;;;;;;;;;4951030;29;20070;-57
2023/03/07 05:50:42;;;;;;;140.82;37.58;;;;;;;;;;4951054;28;20067;-56
2023/03/07 05:53:09;;;;;;;160.93;42.42;;;;;;;;;;4951292;28;20043;-58
2023/03/07 05:55:35;;;;;;;136.57;40.13;;;;;;;;;;4951538;29;20051;-60
2023/03/07 05:58:02;;;;;;;163.55;42.53;;;;;;;;;;4959963;28;20118;-58
2023/03/07 06:00:29;;;;;;;199.82;45.33;;;;;;;;;;4949229;28;20050;-55
2023/03/07 06:03:00;;;;;;;152.57;40.05;;;;;;;;;;4948950;28;20073;-56
2023/03/07 06:05:27;;;;;;;180.07;40.50;;;;;;;;;;4947532;29;20048;-52
2023/03/07 06:07:54;;;;;;;165.60;37.78;;;;;;;;;;4951376;28;20115;-52
2023/03/07 06:10:20;;;;;;;194.30;39.65;;;;;;;;;;4950518;29;20045;-51
2023/03/07 06:12:51;;;;;;;148.65;37.35;;;;;;;;;;4952735;28;20051;-55
2023/03/07 06:15:18;;;;;;;144.18;38.88;;;;;;;;;;4951444;28;20032;-53
2023/03/07 06:17:46;;;;;;;145.93;38.22;;;;;;;;;;4950595;29;20047;-53
2023/03/07 06:20:14;;;;;;;164.60;39.10;;;;;;;;;;4950150;28;20051;-54
2023/03/07 06:22:41;;;;;;;154.98;39.13;;;;;;;;;;4950082;29;20039;-54
2023/03/07 06:25:08;;;;;;;151.15;39.53;;;;;;;;;;4952934;28;20051;-54
2023/03/07 06:27:35;;;;;;;155.80;39.70;;;;;;;;;;4949899;29;20059;-55
2023/03/07 06:30:04;;;;;;;187.68;42.40;;;;;;;;;;4949951;28;20083;-53
2023/03/07 06:32:31;;;;;;;172.75;45.63;;;;;;;;;;4951535;28;20051;-55
2023/03/07 06:34:58;;;;;;;152.48;39.42;;;;;;;;;;4948690;29;20064;-53
2023/03/07 06:37:25;;;;;;;190.75;43.08;;;;;;;;;;4949968;28;20070;-54
2023/03/07 06:39:54;;;;;;;149.73;42.25;;;;;;;;;;4951138;29;20107;-55
2023/03/07 06:42:21;;;;;;;173.00;40.92;;;;;;;;;;4948965;28;20043;-54
2023/03/07 06:44:47;;;;;;;156.27;41.67;;;;;;;;;;4949784;28;20102;-55
2023/03/07 06:47:14;;;;;;;203.75;45.88;;;;;;;;;;4949465;28;20496;-55
2023/03/07 06:49:41;;;;;;;139.82;37.42;;;;;;;;;;4948765;28;20047;-55
2023/03/07 06:52:07;;;;;;;139.50;37.00;;;;;;;;;;4946038;29;20098;-54
2023/03/07 06:54:34;;;;;;;152.80;38.38;;;;;;;;;;4958976;28;20047;-53
2023/03/07 06:57:00;;;;;;;154.75;38.88;;;;;;;;;;4958083;28;20063;-52
2023/03/07 06:59:27;;;;;;;112.22;35.22;;;;;;;;;;4962126;28;20051;-55
2023/03/07 07:01:53;;;;;;;121.20;35.20;;;;;;;;;;4946041;28;20575;-58
2023/03/07 07:04:21;;;;;;;133.60;34.53;;;;;;;;;;4947813;28;20054;-58
2023/03/07 07:06:48;;;;;;;113.18;35.13;;;;;;;;;;4949308;29;20046;-59
2023/03/07 07:09:15;;;;;;;103.55;33.65;;;;;;;;;;4949905;28;20090;-60
2023/03/07 07:11:42;;;;;;;110.35;33.22;;;;;;;;;;4949515;28;20039;-57
2023/03/07 07:14:10;;;;;;;96.18;31.02;;;;;;;;;;4949538;28;20039;-60
2023/03/07 07:16:38;;;;;;;105.88;30.55;;;;;;;;;;4949611;29;20543;-59
2023/03/07 07:19:05;;;;;;;126.72;34.45;;;;;;;;;;4959606;28;20050;-58
2023/03/07 07:21:34;;;;;;;85.10;30.77;;;;;;;;;;4949577;28;20536;-60
2023/03/07 07:24:00;;;;;;;104.00;30.45;;;;;;;;;;4950711;28;20098;-61
2023/03/07 07:26:27;;;;;;;111.90;31.50;;;;;;;;;;4949313;29;20424;-57
2023/03/07 07:28:56;;;;;;;108.28;32.40;;;;;;;;;;4933863;29;20106;-57
2023/03/07 07:31:22;;;;;;;109.65;29.65;;;;;;;;;;4951481;28;20050;-56
2023/03/07 07:33:49;;;;;;;105.13;29.58;;;;;;;;;;4949542;29;20047;-60
2023/03/07 07:36:17;;;;;;;88.50;30.13;;;;;;;;;;4948881;28;20039;-61
2023/03/07 07:38:43;;;;;;;100.30;30.55;;;;;;;;;;4950134;28;20039;-59
2023/03/07 07:41:11;;;;;;;101.68;30.73;;;;;;;;;;4949116;29;20469;-58
2023/03/07 07:43:37;;;;;;;111.00;29.95;;;;;;;;;;4956871;28;20047;-58
2023/03/07 07:46:16;;;;;;;89.93;28.15;;;;;;;;;;4948772;29;20067;-57
2023/03/07 07:48:45;;;;;;;112.15;30.38;;;;;;;;;;4949358;29;20047;-58
2023/03/07 07:51:11;;;;;;;102.95;29.42;;;;;;;;;;4948822;28;20038;-58
2023/03/07 07:53:38;;;;;;;89.22;29.35;;;;;;;;;;4948972;28;20071;-60
2023/03/07 07:56:05;;;;;;;125.13;29.88;;;;;;;;;;4949576;28;20122;-60
2023/03/07 07:58:32;;;;;;;83.35;27.20;;;;;;;;;;4957208;28;20460;-60
2023/03/07 08:01:00;;;;;;;92.65;27.30;;;;;;;;;;4952185;29;20047;-60
2023/03/07 08:03:27;;;;;;;124.55;29.42;;;;;;;;;;4952513;29;20142;-56
2023/03/07 08:05:54;;;;;;;78.00;25.65;;;;;;;;;;4954206;28;20492;-58
2023/03/07 08:08:20;;;;;;;74.68;25.73;;;;;;;;;;4953790;28;20204;-56
2023/03/07 08:10:47;;;;;;;99.55;26.33;;;;;;;;;;4953987;28;20066;-59
2023/03/07 08:13:14;;;;;;;85.97;24.67;;;;;;;;;;4953317;29;20047;-57
2023/03/07 08:15:41;;;;;;;207.82;33.45;;;;;;;;;;4951674;28;20055;-53
2023/03/07 08:18:09;;;;;;;102.10;27.77;;;;;;;;;;4953964;28;20043;-52
2023/03/07 08:20:36;;;;;;;83.47;26.52;;;;;;;;;;4952257;29;20110;-52
2023/03/07 08:23:03;;;;;;;82.60;25.48;;;;;;;;;;4954022;28;20043;-53
2023/03/07 08:25:29;;;;;;;115.55;28.45;;;;;;;;;;4953893;28;20055;-54
2023/03/07 08:27:56;;;;;;;70.18;23.33;;;;;;;;;;4954836;28;20044;-54
2023/03/07 08:30:27;;;;;;;75.57;23.52;;;;;;;;;;4955064;28;20050;-55
2023/03/07 08:32:54;;;;;;;97.47;25.60;;;;;;;;;;4953794;28;20051;-54
2023/03/07 08:35:23;;;;;;;55.28;21.02;;;;;;;;;;4953768;28;20058;-55
2023/03/07 08:37:52;;;;;;;87.45;24.33;;;;;;;;;;4953433;28;20043;-53
2023/03/07 08:40:20;;;;;;;82.70;23.73;;;;;;;;;;4954053;28;20071;-54
2023/03/07 08:42:46;;;;;;;67.68;22.25;;;;;;;;;;4953343;29;20058;-52
2023/03/07 08:45:14;;;;;;;79.07;23.20;;;;;;;;;;4952759;28;20094;-55
2023/03/07 08:47:40;;;;;;;72.15;22.75;;;;;;;;;;4953488;28;20039;-53
2023/03/07 08:50:07;;;;;;;78.80;22.83;;;;;;;;;;4953354;28;20049;-54
2023/03/07 08:52:33;;;;;;;80.55;23.10;;;;;;;;;;4949846;28;20484;-53
2023/03/07 08:55:00;;;;;;;96.13;22.15;;;;;;;;;;4954308;29;20050;-53
2023/03/07 08:57:26;;;;;;;63.47;19.63;;;;;;;;;;4953598;28;20721;-54
2023/03/07 08:59:53;;;;;;;65.63;18.50;;;;;;;;;;4952837;28;20131;-54
2023/03/07 09:02:19;;;;;;;78.75;19.92;;;;;;;;;;4952904;28;20054;-51
2023/03/07 09:04:46;;;;;;;73.00;17.17;;;;;;;;;;4952720;28;20043;-53
2023/03/07 09:07:12;;;;;;;60.78;18.08;;;;;;;;;;4953895;28;20047;-54
2023/03/07 09:09:39;;;;;;;72.65;20.63;;;;;;;;;;4952535;28;20053;-55
2023/03/07 09:12:05;;;;;;;84.70;19.65;;;;;;;;;;4951965;28;20780;-52
2023/03/07 09:14:32;;;;;;;74.20;17.80;;;;;;;;;;4952328;28;20058;-51
2023/03/07 09:16:58;;;;;;;95.47;21.27;;;;;;;;;;4952581;28;20076;-53
2023/03/07 09:19:25;;;;;;;72.63;18.90;;;;;;;;;;4948196;28;20102;-58
2023/03/07 09:21:52;;;;;;;57.42;17.27;;;;;;;;;;4953840;28;20043;-58
2023/03/07 09:24:18;;;;;;;81.80;19.05;;;;;;;;;;4953021;28;20114;-60
2023/03/07 09:26:45;;;;;;;54.15;17.55;;;;;;;;;;4952908;28;20053;-58
2023/03/07 09:29:11;;;;;;;63.58;18.83;;;;;;;;;;4956352;28;20079;-60
2023/03/07 09:31:39;;;;;;;78.57;19.38;;;;;;;;;;4952877;28;20460;-58
2023/03/07 09:34:06;;;;;;;79.47;20.35;;;;;;;;;;4953190;28;20054;-59
2023/03/07 09:36:32;;;;;;;55.45;17.85;;;;;;;;;;4952780;28;20043;-58
2023/03/07 09:38:59;;;;;;;87.47;20.90;;;;;;;;;;4952320;28;20043;-60
2023/03/07 09:41:32;;;;;;;51.00;18.17;;;;;;;;;;4952706;29;20055;-59
2023/03/07 09:44:17;;;;;;;106.93;22.27;;;;;;;;;;4951180;28;20114;-59
2023/03/07 09:47:10;;;;;;;59.28;18.27;;;;;;;;;;4949138;29;20612;-60
2023/03/07 09:49:44;;;;;;;82.30;20.90;;;;;;;;;;4952120;28;20040;-57
2023/03/07 09:52:13;;;;;;;71.25;19.80;;;;;;;;;;4948444;29;20094;-60
2023/03/07 09:54:41;;;;;;;68.88;21.05;;;;;;;;;;4952782;28;20043;-59
2023/03/07 09:57:13;;;;;;;49.38;18.02;;;;;;;;;;4959001;28;20074;-57
2023/03/07 09:59:46;;;;;;;55.30;18.20;;;;;;;;;;4948051;28;20137;-59
2023/03/07 10:02:22;;;;;;;81.07;21.23;;;;;;;;;;4951628;28;20130;-59
2023/03/07 10:05:06;;;;;;;62.80;18.88;;;;;;;;;;4950445;29;20047;-58
2023/03/07 10:07:34;;;;;;;102.15;22.70;;;;;;;;;;4950358;29;20121;-58
2023/03/07 10:10:03;;;;;;;80.93;20.60;;;;;;;;;;4952961;28;20490;-59
2023/03/07 10:12:43;;;;;;;69.43;21.65;;;;;;;;;;4951692;28;20575;-59
2023/03/07 10:15:30;;;;;;;62.58;21.58;;;;;;;;;;4951713;28;20054;-60
2023/03/07 10:17:56;;;;;;;108.07;25.05;;;;;;;;;;4948868;29;20075;-60
2023/03/07 10:20:23;;;;;;;51.83;19.52;;;;;;;;;;4951919;28;20526;-57
2023/03/07 10:23:09;;;;;;;60.10;20.20;;;;;;;;;;4950504;28;20040;-59
2023/03/07 10:25:38;;;;;;;110.68;23.55;;;;;;;;;;4950172;29;20061;-60
2023/03/07 10:28:25;;;;;;;89.05;23.10;;;;;;;;;;4952241;28;20404;-58
2023/03/07 10:30:56;;;;;;;69.00;22.33;;;;;;;;;;4952105;28;20090;-57
2023/03/07 10:33:22;;;;;;;77.32;23.35;;;;;;;;;;4951806;28;20043;-58
2023/03/07 10:35:53;;;;;;;71.13;22.98;;;;;;;;;;4947408;29;20035;-58
2023/03/07 10:38:31;;;;;;;53.60;20.98;;;;;;;;;;4948222;29;20102;-59
2023/03/07 10:41:00;;;;;;;69.80;21.20;;;;;;;;;;4950748;28;20122;-60
2023/03/07 10:43:28;;;;;;;99.63;23.65;;;;;;;;;;4951578;28;20043;-58
2023/03/07 10:45:59;;;;;;;73.03;21.67;;;;;;;;;;4951591;28;20055;-59
2023/03/07 10:48:26;;;;;;;73.43;23.15;;;;;;;;;;4950885;28;20156;-59
2023/03/07 10:51:08;;;;;;;64.07;22.77;;;;;;;;;;4951048;28;20043;-59
2023/03/07 10:53:35;;;;;;;72.35;23.45;;;;;;;;;;4949096;29;20067;-59
2023/03/07 10:56:12;;;;;;;97.05;23.65;;;;;;;;;;4950667;28;20150;-60
2023/03/07 10:58:40;;;;;;;87.28;24.77;;;;;;;;;;4950891;28;20055;-57
2023/03/07 11:01:06;;;;;;;78.68;25.63;;;;;;;;;;4952524;28;20039;-59
2023/03/07 11:03:42;;;;;;;96.00;25.33;;;;;;;;;;4950237;28;20043;-58
2023/03/07 11:06:32;;;;;;;91.07;25.75;;;;;;;;;;4948646;29;20094;-54
2023/03/07 11:09:17;;;;;;;93.47;24.67;;;;;;;;;;4951403;28;20504;-54
2023/03/07 11:11:48;;;;;;;81.22;26.05;;;;;;;;;;4949281;29;20227;-54
2023/03/07 11:14:15;;;;;;;82.22;25.60;;;;;;;;;;4950544;28;20590;-54
2023/03/07 11:16:54;;;;;;;90.80;26.23;;;;;;;;;;4950910;28;20054;-53
2023/03/07 11:19:24;;;;;;;78.20;23.85;;;;;;;;;;4948403;29;20043;-51
2023/03/07 11:21:54;;;;;;;74.43;25.05;;;;;;;;;;4950642;29;20050;-55
2023/03/07 11:24:23;;;;;;;81.80;25.90;;;;;;;;;;4954066;28;20093;-52
2023/03/07 11:26:54;;;;;;;55.67;23.00;;;;;;;;;;4950607;28;20083;-53
2023/03/07 11:29:20;;;;;;;99.53;26.42;;;;;;;;;;4950057;28;20110;-53
2023/03/07 11:31:47;;;;;;;93.10;26.63;;;;;;;;;;4951004;28;20039;-51
2023/03/07 11:34:21;;;;;;;64.40;23.05;;;;;;;;;;4951347;28;20090;-52
2023/03/07 11:36:50;;;;;;;92.22;26.40;;;;;;;;;;4950740;29;20044;-53
2023/03/07 11:39:22;;;;;;;67.20;22.65;;;;;;;;;;4950028;28;20047;-54
2023/03/07 11:41:54;;;;;;;80.65;24.58;;;;;;;;;;4947153;29;20567;-53
2023/03/07 11:44:26;;;;;;;85.45;24.33;;;;;;;;;;4949890;28;20039;-53
2023/03/07 11:47:05;;;;;;;74.05;24.77;;;;;;;;;;4948860;28;20055;-53
2023/03/07 11:49:43;;;;;;;117.88;26.70;;;;;;;;;;4950426;28;20043;-55
2023/03/07 11:52:10;;;;;;;67.03;23.73;;;;;;;;;;4951149;28;20492;-52
2023/03/07 11:54:43;;;;;;;72.32;25.40;;;;;;;;;;4949537;28;20053;-55
2023/03/07 11:57:23;;;;;;;96.00;26.85;;;;;;;;;;4950249;28;20040;-53
2023/03/07 12:00:09;;;;;;;90.68;25.75;;;;;;;;;;4946283;29;20043;-55
2023/03/07 12:02:56;;;;;;;90.70;25.15;;;;;;;;;;4939937;29;20047;-55
2023/03/07 12:05:45;;;;;;;102.10;26.65;;;;;;;;;;4947657;29;20036;-53
2023/03/07 12:08:27;;;;;;;79.95;23.55;;;;;;;;;;4946605;29;20062;-54
2023/03/07 12:10:54;;;;;;;80.22;24.92;;;;;;;;;;4946191;28;20043;-59
2023/03/07 12:13:20;;;;;;;69.97;23.73;;;;;;;;;;4951071;28;20043;-58
2023/03/07 12:15:56;;;;;;;83.35;25.13;;;;;;;;;;4950512;29;20059;-58
2023/03/07 12:18:39;;;;;;;71.68;25.83;;;;;;;;;;4947987;29;20047;-56
2023/03/07 12:21:29;;;;;;;87.45;24.77;;;;;;;;;;4948777;29;20102;-60
2023/03/07 12:23:58;;;;;;;68.65;23.75;;;;;;;;;;4924871;29;20487;-56
2023/03/07 12:26:32;;;;;;;84.88;24.35;;;;;;;;;;4928689;29;20063;-58
2023/03/07 12:29:10;;;;;;;82.30;23.85;;;;;;;;;;4928104;29;20064;-57
2023/03/07 12:31:37;;;;;;;112.97;24.77;;;;;;;;;;4927463;29;20059;-57
2023/03/07 12:34:23;;;;;;;73.18;22.55;;;;;;;;;;4929781;29;20142;-57
2023/03/07 12:36:55;;;;;;;75.45;21.05;;;;;;;;;;4929648;29;20044;-59
2023/03/07 12:39:22;;;;;;;54.80;21.42;;;;;;;;;;4928668;29;20051;-57
2023/03/07 12:41:53;;;;;;;62.78;21.92;;;;;;;;;;4925197;29;20056;-57
2023/03/07 12:44:25;;;;;;;83.35;21.02;;;;;;;;;;4924632;29;20054;-59
2023/03/07 12:46:55;;;;;;;69.95;22.77;;;;;;;;;;4931049;29;20122;-58
2023/03/07 12:49:29;;;;;;;93.13;23.80;;;;;;;;;;4933344;29;20225;-58
2023/03/07 12:52:02;;;;;;;73.20;21.15;;;;;;;;;;4932178;29;20055;-58
2023/03/07 12:54:31;;;;;;;61.92;21.13;;;;;;;;;;4932111;29;20054;-58
2023/03/07 12:57:00;;;;;;;62.30;20.80;;;;;;;;;;4932084;29;20040;-58
2023/03/07 12:59:28;;;;;;;70.85;21.35;;;;;;;;;;4928318;29;20572;-55
2023/03/07 13:02:02;;;;;;;72.22;22.25;;;;;;;;;;4950167;29;20078;-58
2023/03/07 13:04:33;;;;;;;71.90;22.45;;;;;;;;;;4953843;28;20070;-56
2023/03/07 13:07:05;;;;;;;66.55;20.85;;;;;;;;;;4952574;29;20493;-58
2023/03/07 13:09:32;;;;;;;77.95;21.10;;;;;;;;;;4953386;28;20055;-54
2023/03/07 13:12:23;;;;;;;81.30;21.50;;;;;;;;;;4950705;28;20074;-54
2023/03/07 13:15:09;;;;;;;77.90;19.42;;;;;;;;;;4943767;29;20062;-52
2023/03/07 13:17:40;;;;;;;82.47;20.30;;;;;;;;;;4904181;29;20148;-54
2023/03/07 13:20:18;;;;;;;76.50;21.00;;;;;;;;;;4903845;29;20402;-49
2023/03/07 13:22:45;;;;;;;49.03;16.65;;;;;;;;;;4896310;29;20048;-53
2023/03/07 13:25:32;;;;;;;80.13;20.48;;;;;;;;;;4902634;29;20052;-53
2023/03/07 13:28:02;;;;;;;62.65;18.50;;;;;;;;;;4906535;29;20632;-54
2023/03/07 13:30:29;;;;;;;89.97;20.30;;;;;;;;;;4904475;29;20545;-54
2023/03/07 13:32:58;;;;;;;65.95;18.70;;;;;;;;;;4902997;29;20048;-53
2023/03/07 13:35:27;;;;;;;58.03;17.95;;;;;;;;;;4902914;29;20143;-54
2023/03/07 13:37:55;;;;;;;76.93;18.95;;;;;;;;;;4904080;29;20126;-54
2023/03/07 13:40:21;;;;;;;51.53;19.33;;;;;;;;;;4902210;29;20528;-50
2023/03/07 13:42:48;;;;;;;55.10;19.50;;;;;;;;;;4900936;29;20102;-52
2023/03/07 13:45:33;;;;;;;83.03;23.70;;;;;;;;;;4902127;29;20505;-52
2023/03/07 13:47:59;;;;;;;68.55;19.73;;;;;;;;;;4907252;29;20067;-52
2023/03/07 13:50:32;;;;;;;80.55;21.80;;;;;;;;;;4905884;29;20490;-53
2023/03/07 13:53:07;;;;;;;45.42;17.38;;;;;;;;;;4905654;29;20051;-53
2023/03/07 13:55:38;;;;;;;96.53;18.83;;;;;;;;;;4944761;29;20069;-53
2023/03/07 13:58:12;;;;;;;88.50;20.55;;;;;;;;;;4953199;28;20057;-52
2023/03/07 14:00:40;;;;;;;72.40;19.02;;;;;;;;;;4952377;28;20078;-53
2023/03/07 14:03:15;;;;;;;89.45;19.80;;;;;;;;;;4952049;28;20054;-52
2023/03/07 14:05:42;;;;;;;43.33;16.63;;;;;;;;;;4952604;28;20416;-53
2023/03/07 14:08:10;;;;;;;61.85;17.13;;;;;;;;;;4951812;28;20039;-55
2023/03/07 14:10:37;;;;;;;76.88;17.83;;;;;;;;;;4952291;28;20043;-54
2023/03/07 14:13:08;;;;;;;63.25;17.08;;;;;;;;;;4953271;28;20078;-52
2023/03/07 14:15:35;;;;;;;70.60;17.73;;;;;;;;;;4951655;28;20047;-54
2023/03/07 14:18:22;;;;;;;72.20;18.08;;;;;;;;;;4947698;29;20042;-54
2023/03/07 14:21:11;;;;;;;53.13;15.82;;;;;;;;;;4940606;29;20138;-55
2023/03/07 14:23:45;;;;;;;54.35;16.50;;;;;;;;;;4949899;29;20059;-53